Terminal Aerodrome Forecast
Issued by NWS North Platte, NE

Home | Current Version | Previous Version | Graphics & Text | Print | Product List | Glossary On
Versions: 1 2 3 4 5 6 7 8 9 10 11 12 13 14 15 16 17 18 19 20
805
FTUS43 KLBF 170520
TAFVTN
TAF
KVTN 170520Z 1706/1806 12012KT P6SM FEW250 WS015/17045KT
     FM171200 13012KT P6SM SCT020
     FM171400 14013G22KT P6SM BKN020
     FM171800 12016G25KT P6SM BKN030 BKN050
     FM180000 08012KT 6SM -SHRA OVC015
     FM180400 35015G23KT 6SM -SHRASN SCT007 OVC015=

USA.gov is the U.S. government's official web portal to all federal, state and local government web resources and services.